createdAt,value
2018-05-08T00:02:22.731Z,18.00
2018-05-08T00:04:50.207Z,18.00
2018-05-08T00:07:18.451Z,17.90
2018-05-08T00:09:45.943Z,17.80
2018-05-08T00:12:14.163Z,17.80
2018-05-08T00:14:41.623Z,17.70
2018-05-08T00:17:09.108Z,17.80
2018-05-08T00:19:36.580Z,17.70
2018-05-08T00:22:04.123Z,17.70
2018-05-08T00:24:31.640Z,17.70
2018-05-08T00:26:59.097Z,17.60
2018-05-08T00:29:26.758Z,17.60
2018-05-08T00:31:54.277Z,17.60
2018-05-08T00:34:22.543Z,17.60
2018-05-08T00:36:50.092Z,17.50
2018-05-08T00:39:17.568Z,17.50
2018-05-08T00:41:45.826Z,17.50
2018-05-08T00:44:13.302Z,17.50
2018-05-08T00:46:41.523Z,17.50
2018-05-08T00:49:08.992Z,17.40
2018-05-08T00:51:36.472Z,17.30
2018-05-08T00:54:04.031Z,17.20
2018-05-08T00:56:31.583Z,17.30
2018-05-08T00:58:59.066Z,17.20
2018-05-08T01:01:27.319Z,17.20
2018-05-08T01:03:54.807Z,17.10
2018-05-08T01:06:23.047Z,17.10
2018-05-08T01:08:50.607Z,17.10
2018-05-08T01:11:18.087Z,17.10
2018-05-08T01:13:46.306Z,17.10
2018-05-08T01:16:13.781Z,17.00
2018-05-08T01:18:41.258Z,17.00
2018-05-08T01:21:08.839Z,17.00
2018-05-08T01:23:37.058Z,17.00
2018-05-08T01:26:04.532Z,17.00
2018-05-08T01:28:32.008Z,17.00
2018-05-08T01:30:59.562Z,16.90
2018-05-08T01:33:27.036Z,16.90
2018-05-08T01:35:55.293Z,16.90
2018-05-08T01:38:22.809Z,16.80
2018-05-08T01:40:50.327Z,16.90
2018-05-08T01:43:18.587Z,16.90
2018-05-08T01:45:46.015Z,16.80
2018-05-08T01:48:13.516Z,16.90
2018-05-08T01:50:41.760Z,16.90
2018-05-08T01:53:09.288Z,16.80
2018-05-08T01:55:36.780Z,16.80
2018-05-08T01:58:04.244Z,16.80
2018-05-08T02:00:31.703Z,16.80
2018-05-08T02:02:59.260Z,16.70
2018-05-08T02:05:26.812Z,16.70
2018-05-08T02:07:54.280Z,16.70
2018-05-08T02:10:21.749Z,16.70
2018-05-08T02:12:50.005Z,16.60
2018-05-08T02:15:17.465Z,16.60
2018-05-08T02:17:45.025Z,16.70
2018-05-08T02:20:12.606Z,16.70
2018-05-08T02:22:40.849Z,16.60
2018-05-08T02:25:08.419Z,16.60
2018-05-08T02:27:35.978Z,16.60
2018-05-08T02:30:03.442Z,16.60
2018-05-08T02:32:30.915Z,16.60
2018-05-08T02:34:59.161Z,16.50
2018-05-08T02:37:26.650Z,16.40
2018-05-08T02:39:54.879Z,16.50
2018-05-08T02:42:22.349Z,16.40
2018-05-08T02:44:49.815Z,16.40
2018-05-08T02:47:18.147Z,16.40
2018-05-08T02:49:45.605Z,16.40
2018-05-08T02:52:13.087Z,16.40
2018-05-08T02:54:40.547Z,16.40
2018-05-08T02:57:09.527Z,16.30
2018-05-08T02:59:37.010Z,16.30
2018-05-08T03:02:04.496Z,16.30
2018-05-08T03:04:32.019Z,16.30
2018-05-08T03:06:59.516Z,16.20
2018-05-08T03:09:27.051Z,16.20
2018-05-08T03:11:55.288Z,16.20
2018-05-08T03:14:22.783Z,16.10
2018-05-08T03:16:51.023Z,16.20
2018-05-08T03:19:18.495Z,16.10
2018-05-08T03:21:45.956Z,16.20
2018-05-08T03:24:13.428Z,16.20
2018-05-08T03:26:40.892Z,16.10
2018-05-08T03:29:09.123Z,16.10
2018-05-08T03:31:36.584Z,16.10
2018-05-08T03:34:04.047Z,16.10
2018-05-08T03:36:31.610Z,16.10
2018-05-08T03:38:59.170Z,16.10
2018-05-08T03:41:26.763Z,16.00
2018-05-08T03:43:55.007Z,16.10
2018-05-08T03:46:22.562Z,16.00
2018-05-08T03:48:50.064Z,16.10
2018-05-08T03:51:17.593Z,16.10
2018-05-08T03:53:45.868Z,16.00
2018-05-08T03:56:13.432Z,16.00
2018-05-08T03:58:41.665Z,15.90
2018-05-08T04:01:21.036Z,15.90
2018-05-08T04:04:00.301Z,15.90
2018-05-08T04:06:36.552Z,15.90
2018-05-08T04:09:04.824Z,15.90
2018-05-08T04:11:33.055Z,16.00
2018-05-08T04:14:00.519Z,15.90
2018-05-08T04:16:28.049Z,15.90
2018-05-08T04:18:55.549Z,15.90
2018-05-08T04:21:23.018Z,15.90
2018-05-08T04:23:50.551Z,15.90
2018-05-08T04:26:18.008Z,15.90
2018-05-08T04:28:45.580Z,16.00
2018-05-08T04:31:13.064Z,16.00
2018-05-08T04:33:41.307Z,16.10
2018-05-08T04:36:08.877Z,16.00
2018-05-08T04:38:36.355Z,16.10
2018-05-08T04:41:03.833Z,16.20
2018-05-08T04:43:31.306Z,16.20
2018-05-08T04:45:58.818Z,16.30
2018-05-08T04:48:27.060Z,16.30
2018-05-08T04:50:54.526Z,16.30
2018-05-08T04:53:23.516Z,16.40
2018-05-08T04:55:51.057Z,16.40
2018-05-08T04:58:19.252Z,16.50
2018-05-08T05:00:46.747Z,16.50
2018-05-08T05:03:14.207Z,16.60
2018-05-08T05:05:41.676Z,16.70
2018-05-08T05:08:09.201Z,16.80
2018-05-08T05:10:36.665Z,16.80
2018-05-08T05:13:04.895Z,17.00
2018-05-08T05:15:32.367Z,17.00
2018-05-08T05:17:59.843Z,17.10
2018-05-08T05:20:27.396Z,17.10
2018-05-08T05:22:54.857Z,17.20
2018-05-08T05:25:23.179Z,17.40
2018-05-08T05:27:50.672Z,17.30
2018-05-08T05:30:18.158Z,17.50
2018-05-08T05:32:46.379Z,17.50
2018-05-08T05:35:13.876Z,17.50
2018-05-08T05:37:41.335Z,17.50
2018-05-08T05:40:08.839Z,17.60
2018-05-08T05:42:36.395Z,17.80
2018-05-08T05:45:04.714Z,18.00
2018-05-08T05:47:32.180Z,17.90
2018-05-08T05:50:00.415Z,18.20
2018-05-08T05:52:27.886Z,18.10
2018-05-08T05:54:55.344Z,18.20
2018-05-08T05:57:22.822Z,18.30
2018-05-08T05:59:50.283Z,18.40
2018-05-08T06:02:18.568Z,18.40
2018-05-08T06:04:45.983Z,18.30
2018-05-08T06:07:13.525Z,18.50
2018-05-08T06:09:41.027Z,18.60
2018-05-08T06:12:09.259Z,18.70
2018-05-08T06:14:36.739Z,18.70
2018-05-08T06:17:04.221Z,18.90
2018-05-08T06:19:31.692Z,19.00
2018-05-08T06:21:59.960Z,19.10
2018-05-08T06:24:28.352Z,19.10
2018-05-08T06:26:56.587Z,19.10
2018-05-08T06:29:24.155Z,19.10
2018-05-08T06:31:51.721Z,19.20
2018-05-08T06:34:19.284Z,19.30
2018-05-08T06:36:46.766Z,19.40
2018-05-08T06:39:15.003Z,19.50
2018-05-08T06:41:42.477Z,19.40
2018-05-08T06:44:09.961Z,19.60
2018-05-08T06:46:37.541Z,19.70
2018-05-08T06:49:04.992Z,19.80
2018-05-08T06:51:32.455Z,19.90
2018-05-08T06:53:59.923Z,20.10
2018-05-08T06:56:27.413Z,20.20
2018-05-08T06:58:56.392Z,20.40
2018-05-08T07:01:23.888Z,20.40
2018-05-08T07:03:52.123Z,20.50
2018-05-08T07:06:19.589Z,20.50
2018-05-08T07:08:47.864Z,20.60
2018-05-08T07:11:16.850Z,20.70
2018-05-08T07:13:44.325Z,20.70
2018-05-08T07:16:11.954Z,20.90
2018-05-08T07:18:39.334Z,20.90
2018-05-08T07:21:06.791Z,21.00
2018-05-08T07:23:34.279Z,21.20
2018-05-08T07:26:02.512Z,21.20
2018-05-08T07:28:30.033Z,21.20
2018-05-08T07:30:57.512Z,21.20
2018-05-08T07:33:25.108Z,21.30
2018-05-08T07:35:52.592Z,21.40
2018-05-08T07:38:20.190Z,21.50
2018-05-08T07:40:48.383Z,21.60
2018-05-08T07:43:15.843Z,21.50
2018-05-08T07:45:43.383Z,21.70
2018-05-08T07:48:11.680Z,21.80
2018-05-08T07:50:39.224Z,21.80
2018-05-08T07:53:06.687Z,21.90
2018-05-08T07:55:34.142Z,21.90
2018-05-08T07:58:01.696Z,21.90
2018-05-08T08:00:29.156Z,22.00
2018-05-08T08:02:56.620Z,22.10
2018-05-08T08:05:24.183Z,22.10
2018-05-08T08:07:51.651Z,22.10
2018-05-08T08:10:19.990Z,22.30
2018-05-08T08:12:47.453Z,22.20
2018-05-08T08:15:14.918Z,22.30
2018-05-08T08:17:42.473Z,22.40
2018-05-08T08:20:09.956Z,22.60
2018-05-08T08:22:38.186Z,22.70
2018-05-08T08:25:05.671Z,22.70
2018-05-08T08:27:33.144Z,22.70
2018-05-08T08:30:00.612Z,22.80
2018-05-08T08:32:28.868Z,22.80
2018-05-08T08:34:56.422Z,22.80
2018-05-08T08:37:23.893Z,22.90
2018-05-08T08:39:52.149Z,23.20
2018-05-08T08:42:19.721Z,23.20
2018-05-08T08:44:47.285Z,23.30
2018-05-08T08:47:14.841Z,23.30
2018-05-08T08:49:42.335Z,23.30
2018-05-08T08:52:10.653Z,23.50
2018-05-08T08:54:38.137Z,23.40
2018-05-08T08:57:06.407Z,23.30
2018-05-08T08:59:33.860Z,23.30
2018-05-08T09:02:02.843Z,23.40
2018-05-08T09:04:30.319Z,23.40
2018-05-08T09:06:58.579Z,23.70
2018-05-08T09:09:26.135Z,23.70
2018-05-08T09:11:53.767Z,23.90
2018-05-08T09:14:21.236Z,24.10
2018-05-08T09:16:48.702Z,24.20
2018-05-08T09:19:16.179Z,24.30
2018-05-08T09:21:43.635Z,24.40
2018-05-08T09:24:11.179Z,24.30
2018-05-08T09:26:38.649Z,24.50
2018-05-08T09:29:06.165Z,24.60
2018-05-08T09:31:33.651Z,24.60
2018-05-08T09:34:01.217Z,24.50
2018-05-08T09:36:28.694Z,24.60
2018-05-08T09:38:57.811Z,24.90
2018-05-08T09:41:25.393Z,24.80
2018-05-08T09:43:52.884Z,24.90
2018-05-08T09:46:20.439Z,25.00
2018-05-08T09:48:47.960Z,25.00
2018-05-08T09:51:15.490Z,25.00
2018-05-08T09:53:42.963Z,25.10
2018-05-08T09:56:10.426Z,25.30
2018-05-08T09:58:37.941Z,25.30
2018-05-08T10:01:05.590Z,25.40
2018-05-08T10:03:33.780Z,25.60
2018-05-08T10:06:02.053Z,25.80
2018-05-08T10:08:30.315Z,25.70
2018-05-08T10:10:57.777Z,25.60
2018-05-08T10:13:25.247Z,25.70
2018-05-08T10:15:53.492Z,25.90
2018-05-08T10:18:22.134Z,25.90
2018-05-08T10:20:49.704Z,25.90
2018-05-08T10:23:17.183Z,26.00
2018-05-08T10:25:44.635Z,26.10
2018-05-08T10:28:12.121Z,26.10
2018-05-08T10:30:40.402Z,26.20
2018-05-08T10:33:07.968Z,26.20
2018-05-08T10:35:35.431Z,26.30
2018-05-08T10:38:03.694Z,26.60
2018-05-08T10:40:31.150Z,26.60
2018-05-08T10:45:32.516Z,26.70
2018-05-08T10:48:00.783Z,26.80
2018-05-08T10:50:29.063Z,27.00
2018-05-08T10:52:56.664Z,27.00
2018-05-08T10:55:24.147Z,27.20
2018-05-08T10:57:51.607Z,27.10
2018-05-08T11:00:19.085Z,27.10
2018-05-08T11:02:46.706Z,27.20
2018-05-08T11:05:14.211Z,27.40
2018-05-08T11:07:41.772Z,27.50
2018-05-08T11:10:10.019Z,27.90
2018-05-08T11:12:37.499Z,27.80
2018-05-08T11:15:04.960Z,28.00
2018-05-08T11:17:32.436Z,28.30
2018-05-08T11:20:00.666Z,28.60
2018-05-08T11:22:28.143Z,28.50
2018-05-08T11:24:55.613Z,28.50
2018-05-08T11:27:23.858Z,28.70
2018-05-08T11:29:51.441Z,28.70
2018-05-08T11:32:18.987Z,28.90
2018-05-08T11:34:46.451Z,29.10
2018-05-08T11:37:13.927Z,29.10
2018-05-08T11:39:42.208Z,29.50
2018-05-08T11:42:10.460Z,29.60
2018-05-08T11:44:39.540Z,29.50
2018-05-08T11:47:07.368Z,29.60
2018-05-08T11:49:34.876Z,29.50
2018-05-08T11:52:02.489Z,29.50
2018-05-08T11:54:29.947Z,29.80
2018-05-08T11:56:57.447Z,30.10
2018-05-08T11:59:24.910Z,30.30
2018-05-08T12:01:53.183Z,30.30
2018-05-08T12:04:20.674Z,30.30
2018-05-08T12:06:48.258Z,30.50
2018-05-08T12:09:15.768Z,30.40
2018-05-08T12:11:43.193Z,30.40
2018-05-08T12:14:10.773Z,30.40
2018-05-08T12:16:39.006Z,30.30
2018-05-08T12:19:06.507Z,30.20
2018-05-08T12:21:33.981Z,30.50
2018-05-08T12:24:02.214Z,30.70
2018-05-08T12:26:29.701Z,30.70
2018-05-08T12:28:57.924Z,31.00
2018-05-08T12:31:25.395Z,30.90
2018-05-08T12:33:52.865Z,30.90
2018-05-08T12:36:20.339Z,30.70
2018-05-08T12:38:49.325Z,30.80
2018-05-08T12:41:16.787Z,30.80
2018-05-08T12:43:44.340Z,31.00
2018-05-08T12:46:11.808Z,31.10
2018-05-08T12:48:40.079Z,30.90
2018-05-08T12:51:07.555Z,30.80
2018-05-08T12:53:35.811Z,31.00
2018-05-08T12:56:03.304Z,31.00
2018-05-08T12:58:30.780Z,31.10
2018-05-08T13:00:58.260Z,31.20
2018-05-08T13:03:25.711Z,31.40
2018-05-08T13:05:53.171Z,31.60
2018-05-08T13:08:20.627Z,31.80
2018-05-08T13:10:48.192Z,31.80
2018-05-08T13:13:16.351Z,31.90
2018-05-08T13:15:43.822Z,31.80
2018-05-08T13:18:11.311Z,31.90
2018-05-08T13:20:39.569Z,31.80
2018-05-08T13:23:07.045Z,31.80
2018-05-08T13:25:35.264Z,31.60
2018-05-08T13:28:02.731Z,31.60
2018-05-08T13:30:30.215Z,31.80
2018-05-08T13:32:57.679Z,31.70
2018-05-08T13:35:25.222Z,31.50
2018-05-08T13:37:53.479Z,31.50
2018-05-08T13:40:20.975Z,31.50
2018-05-08T13:42:49.241Z,31.60
2018-05-08T13:45:16.786Z,31.60
2018-05-08T13:47:44.247Z,31.80
2018-05-08T13:50:12.469Z,32.10
2018-05-08T13:52:39.949Z,32.10
2018-05-08T13:55:07.464Z,32.20
2018-05-08T13:57:34.957Z,32.20
2018-05-08T14:00:02.427Z,32.10
2018-05-08T14:02:29.883Z,32.00
2018-05-08T14:04:57.359Z,31.70
2018-05-08T14:07:24.938Z,31.80
2018-05-08T14:09:52.397Z,32.00
2018-05-08T14:12:19.874Z,31.90
2018-05-08T14:14:47.392Z,32.10
2018-05-08T14:17:14.981Z,32.10
2018-05-08T14:19:43.242Z,32.20
2018-05-08T14:22:10.707Z,32.10
2018-05-08T14:24:38.945Z,32.30
2018-05-08T14:27:06.408Z,32.30
2018-05-08T14:29:33.944Z,32.40
2018-05-08T14:32:01.422Z,32.30
2018-05-08T14:34:28.963Z,32.20
2018-05-08T14:36:56.466Z,32.20
2018-05-08T14:39:23.904Z,32.20
2018-05-08T14:41:51.375Z,32.20
2018-05-08T14:44:18.840Z,32.30
2018-05-08T14:46:47.080Z,32.60
2018-05-08T14:49:14.573Z,32.60
2018-05-08T14:51:42.840Z,32.60
2018-05-08T14:54:11.070Z,32.60
2018-05-08T14:56:38.620Z,32.60
2018-05-08T14:59:06.094Z,32.70
2018-05-08T15:01:33.568Z,32.60
2018-05-08T15:04:01.148Z,32.60
2018-05-08T15:06:28.607Z,32.60
2018-05-08T15:08:56.871Z,32.60
2018-05-08T15:11:24.343Z,32.50
2018-05-08T15:13:52.580Z,32.60
2018-05-08T15:16:20.048Z,32.50
2018-05-08T15:18:47.507Z,32.40
2018-05-08T15:21:16.481Z,31.90
2018-05-08T15:23:43.976Z,31.90
2018-05-08T15:26:11.441Z,31.90
2018-05-08T15:28:39.687Z,31.90
2018-05-08T15:31:07.918Z,31.90
2018-05-08T15:33:35.389Z,31.90
2018-05-08T15:36:02.847Z,32.00
2018-05-08T15:38:30.312Z,31.90
2018-05-08T15:40:57.830Z,31.80
2018-05-08T15:43:25.355Z,31.90
2018-05-08T15:45:52.912Z,31.90
2018-05-08T15:48:20.392Z,31.80
2018-05-08T15:50:48.771Z,31.70
2018-05-08T15:53:17.119Z,31.80
2018-05-08T15:55:45.406Z,31.60
2018-05-08T15:58:12.967Z,31.60
2018-05-08T16:00:40.443Z,31.50
2018-05-08T16:03:08.677Z,31.50
2018-05-08T16:05:36.690Z,31.40
2018-05-08T16:08:04.931Z,31.10
2018-05-08T16:10:33.155Z,31.20
2018-05-08T16:13:00.724Z,31.10
2018-05-08T16:15:28.236Z,31.20
2018-05-08T16:17:55.695Z,31.20
2018-05-08T16:20:23.173Z,31.20
2018-05-08T16:22:50.702Z,31.10
2018-05-08T16:25:19.667Z,30.90
2018-05-08T16:27:47.132Z,30.90
2018-05-08T16:30:14.766Z,31.00
2018-05-08T16:32:42.190Z,30.90
2018-05-08T16:35:10.433Z,30.80
2018-05-08T16:37:37.891Z,30.70
2018-05-08T16:40:05.377Z,30.60
2018-05-08T16:42:33.818Z,30.60
2018-05-08T16:45:01.447Z,30.50
2018-05-08T16:47:28.953Z,30.60
2018-05-08T16:49:56.421Z,30.60
2018-05-08T16:52:24.658Z,30.20
2018-05-08T16:54:52.129Z,30.20
2018-05-08T16:57:19.600Z,30.20
2018-05-08T16:59:47.160Z,30.00
2018-05-08T17:02:14.711Z,30.00
2018-05-08T17:04:42.233Z,29.70
2018-05-08T17:07:09.650Z,29.70
2018-05-08T17:09:37.887Z,29.50
2018-05-08T17:12:05.356Z,29.50
2018-05-08T17:14:32.912Z,29.40
2018-05-08T17:17:00.475Z,29.40
2018-05-08T17:19:28.036Z,29.40
2018-05-08T17:21:55.508Z,29.30
2018-05-08T17:24:23.749Z,28.80
2018-05-08T17:26:51.235Z,28.70
2018-05-08T17:29:19.479Z,28.20
2018-05-08T17:31:47.012Z,28.20
2018-05-08T17:34:14.471Z,28.10
2018-05-08T17:36:41.931Z,27.90
2018-05-08T17:39:09.383Z,27.70
2018-05-08T17:41:36.862Z,27.50
2018-05-08T17:44:04.368Z,27.30
2018-05-08T17:46:32.598Z,27.00
2018-05-08T17:49:00.844Z,26.90
2018-05-08T17:51:28.403Z,26.90
2018-05-08T17:53:55.978Z,26.90
2018-05-08T17:56:25.306Z,26.80
2018-05-08T17:58:53.581Z,26.60
2018-05-08T18:01:21.147Z,26.50
2018-05-08T18:03:48.604Z,26.50
2018-05-08T18:06:16.087Z,26.50
2018-05-08T18:08:43.547Z,26.40
2018-05-08T18:11:11.036Z,26.40
2018-05-08T18:13:38.562Z,26.20
2018-05-08T18:16:06.964Z,26.10
2018-05-08T18:18:34.441Z,26.00
2018-05-08T18:21:01.941Z,26.00
2018-05-08T18:23:30.285Z,25.80
2018-05-08T18:25:58.459Z,25.60
2018-05-08T18:28:25.961Z,25.60
2018-05-08T18:30:54.183Z,25.40
2018-05-08T18:33:21.655Z,25.40
2018-05-08T18:35:49.122Z,25.40
2018-05-08T18:38:16.613Z,25.30
2018-05-08T18:40:44.116Z,25.20
2018-05-08T18:43:11.602Z,25.10
2018-05-08T18:45:39.073Z,25.10
2018-05-08T18:48:07.307Z,24.90
2018-05-08T18:50:34.792Z,24.90
2018-05-08T18:53:02.259Z,24.90
2018-05-08T18:55:30.499Z,24.70
2018-05-08T18:57:57.964Z,24.70
2018-05-08T19:00:25.431Z,24.60
2018-05-08T19:02:52.919Z,24.60
2018-05-08T19:05:20.378Z,24.50
2018-05-08T19:07:47.984Z,24.40
2018-05-08T19:10:15.450Z,24.30
2018-05-08T19:12:43.892Z,24.30
2018-05-08T19:15:16.987Z,24.20
2018-05-08T19:17:44.500Z,24.10
2018-05-08T19:20:12.754Z,24.00
2018-05-08T19:22:40.525Z,23.90
2018-05-08T19:25:07.983Z,23.90
2018-05-08T19:27:35.680Z,23.80
2018-05-08T19:30:08.773Z,23.80
2018-05-08T19:32:36.239Z,23.70
2018-05-08T19:35:09.423Z,23.70
2018-05-08T19:37:42.660Z,23.60
2018-05-08T19:40:10.229Z,23.60
2018-05-08T19:42:37.694Z,23.50
2018-05-08T19:45:06.055Z,23.50
2018-05-08T19:47:33.520Z,23.40
2018-05-08T19:50:01.075Z,23.40
2018-05-08T19:52:28.641Z,23.40
2018-05-08T19:54:56.040Z,23.40
2018-05-08T19:57:23.495Z,23.30
2018-05-08T19:59:50.999Z,23.30
2018-05-08T20:02:19.239Z,23.20
2018-05-08T20:04:46.739Z,23.10
2018-05-08T20:07:14.295Z,23.10
2018-05-08T20:09:41.764Z,23.10
2018-05-08T20:12:09.337Z,23.00
2018-05-08T20:14:38.463Z,23.00
2018-05-08T20:17:05.968Z,22.90
2018-05-08T20:19:33.434Z,22.90
2018-05-08T20:22:01.769Z,22.80
2018-05-08T20:24:29.252Z,22.80
2018-05-08T20:26:56.699Z,22.80
2018-05-08T20:29:24.173Z,22.70
2018-05-08T20:31:51.643Z,22.70
2018-05-08T20:34:19.883Z,22.60
2018-05-08T20:36:47.343Z,22.50
2018-05-08T20:39:14.811Z,22.50
2018-05-08T20:41:42.263Z,22.40
2018-05-08T20:44:09.732Z,22.40
2018-05-08T20:46:37.196Z,22.40
2018-05-08T20:49:05.497Z,22.30
2018-05-08T20:51:32.958Z,22.30
2018-05-08T20:54:00.415Z,22.30
2018-05-08T20:56:27.884Z,22.30
2018-05-08T20:58:55.360Z,22.20
2018-05-08T21:01:22.984Z,22.20
2018-05-08T21:03:50.313Z,22.10
2018-05-08T21:06:18.548Z,22.10
2018-05-08T21:08:46.024Z,22.00
2018-05-08T21:11:13.541Z,22.00
2018-05-08T21:13:40.999Z,22.00
2018-05-08T21:16:08.500Z,21.90
2018-05-08T21:18:35.996Z,21.90
2018-05-08T21:21:03.511Z,21.80
2018-05-08T21:23:30.987Z,21.80
2018-05-08T21:25:58.527Z,21.70
2018-05-08T21:28:32.504Z,21.60
2018-05-08T21:31:05.698Z,21.50
2018-05-08T21:33:33.160Z,21.60
2018-05-08T21:36:00.631Z,21.50
2018-05-08T21:38:28.172Z,21.50
2018-05-08T21:40:55.655Z,21.40
2018-05-08T21:43:23.131Z,21.30
2018-05-08T21:45:51.392Z,21.20
2018-05-08T21:48:18.869Z,21.10
2018-05-08T21:50:47.224Z,21.10
2018-05-08T21:53:14.739Z,21.00
2018-05-08T21:55:42.248Z,21.10
2018-05-08T21:58:09.722Z,21.00
2018-05-08T22:00:37.947Z,20.90
2018-05-08T22:03:05.422Z,20.90
2018-05-08T22:05:32.891Z,20.80
2018-05-08T22:08:00.447Z,20.80
2018-05-08T22:10:27.903Z,20.80
2018-05-08T22:12:55.392Z,20.70
2018-05-08T22:15:23.622Z,20.70
2018-05-08T22:17:51.217Z,20.60
2018-05-08T22:20:19.505Z,20.70
2018-05-08T22:22:47.030Z,20.60
2018-05-08T22:25:14.487Z,20.70
2018-05-08T22:27:41.963Z,20.60
2018-05-08T22:30:10.219Z,20.50
2018-05-08T22:32:37.781Z,20.50
2018-05-08T22:35:05.336Z,20.50
2018-05-08T22:37:32.926Z,20.50
2018-05-08T22:40:00.337Z,20.40
2018-05-08T22:42:27.911Z,20.40
2018-05-08T22:44:55.477Z,20.30
2018-05-08T22:47:23.748Z,20.30
2018-05-08T22:49:51.228Z,20.20
2018-05-08T22:52:19.495Z,20.20
2018-05-08T22:54:47.727Z,20.10
2018-05-08T22:57:15.201Z,20.10
2018-05-08T22:59:42.666Z,20.10
2018-05-08T23:02:10.126Z,20.00
2018-05-08T23:04:37.580Z,20.00
2018-05-08T23:07:05.876Z,19.90
2018-05-08T23:09:34.099Z,19.90
2018-05-08T23:12:01.641Z,19.90
2018-05-08T23:14:29.116Z,19.90
2018-05-08T23:16:56.640Z,19.80
2018-05-08T23:19:24.109Z,19.80
2018-05-08T23:21:51.632Z,19.80
2018-05-08T23:24:19.868Z,19.80
2018-05-08T23:26:47.330Z,19.70
2018-05-08T23:29:14.803Z,19.80
2018-05-08T23:31:42.278Z,19.80
2018-05-08T23:34:10.517Z,19.70
2018-05-08T23:36:37.987Z,19.70
2018-05-08T23:39:05.556Z,19.70
2018-05-08T23:41:33.018Z,19.70
2018-05-08T23:44:00.570Z,19.70
2018-05-08T23:46:28.036Z,19.70
2018-05-08T23:48:55.527Z,19.60
2018-05-08T23:51:22.989Z,19.60
2018-05-08T23:53:50.463Z,19.60
2018-05-08T23:56:17.925Z,19.60
2018-05-08T23:58:45.440Z,19.50
